Strona główna
METAR-TAF:

METAR-TAF

Lotnisko :

Port lotniczy Pakxe

Pakxe, Laos

Szerokość geograficzna: 15-08-02N, Długość geograficzna: 105-46-55E, wysokość: 107 m

Aktualna obserwacja pogody

Raport powstał 9 godziny i 33 minut temu, godzina 12:00 UTC
Wiatr 2 kt od południe
Temperatura 31°C
Wilgotność 59%
Ciśnienie 1010 hPa
Widzialność: 6000 m
Mało chmury na wysokości 2000 ft
Mało chmury na wysokości 5000 ft

METAR: VLPS 101200Z 18002KT 6000 FEW020 FEW050 31/22 Q1010 NOSIG

czas: 04:33 (21:33 UTC)

Prognoza

Raport powstał 10 godziny i 33 minut temu, godzina 11:00 UTC
Prognoza ważna od 10 godzina 12 UTC do 11 godzina 12 UTC
Wiatr 6 kt od południe
Widzialność: 7000 m
Rozproszone chmury na wysokości 2000 ft
Przerywane chmury na wysokości 20000 ft
Przejściowo
od 10 godzina 16 UTC do 10 godzina 22 UTC
Widzialność: 4000 m
Mało chmury na wysokości 2000 ft
Przerywane chmury na wysokości 20000 ft
zamglenie

TAF: VLPS 101100Z 1012/1112 18006KT 7000 SCT020 BKN200 TEMPO 1016/1022 4000 BR FEW020 BKN200

Obserwacja i prognoza pogody dla ponad 4000 lotnisk (raport METAR i TAF).

Dostępne stacje oznaczono żółtymi i czerwonymi punktami na mapie.

Najedź kursorem aby zobaczyć nazwę stacji.

Kliknij aby zobaczyć obserwacje i prognozy pogody.

Aby zmienić mapę: kliknij na zielony przycisk z czarnym krzyżykiem, aby powiększyć; na zielony przycisk z myślnikiem, aby pomniejszyć; na zielone strzałki, aby przejść do map sąsiednich.


METAR-TAF: